Time;durP1;ratioP1;P1;durP2;ratioP2;P2;SDS_P1;SDS_P2;PMS_P1;PMS_P2;Temp;Humidity;BMP_temperature;BMP_pressure;BME280_temperature;BME280_humidity;BME280_pressure;Samples;Min_cycle;Max_cycle;Signal;HPM_P1;HPM_P2
2021/09/16 00:01:16;;;;;;;5.70;1.60;;;;;;;;;;4330944;33;20155;-80
2021/09/16 00:03:41;;;;;;;7.03;1.42;;;;;;;;;;4330683;33;20124;-82
2021/09/16 00:06:10;;;;;;;5.35;1.20;;;;;;;;;;4330986;33;20140;-83
2021/09/16 00:08:35;;;;;;;3.90;1.40;;;;;;;;;;4330822;33;20450;-81
2021/09/16 00:11:03;;;;;;;5.00;1.40;;;;;;;;;;4331164;33;20641;-82
2021/09/16 00:13:29;;;;;;;4.97;1.50;;;;;;;;;;4330456;33;20163;-81
2021/09/16 00:15:54;;;;;;;4.72;1.95;;;;;;;;;;4331215;33;20182;-82
2021/09/16 00:18:23;;;;;;;4.15;1.25;;;;;;;;;;4331058;33;20170;-81
2021/09/16 00:20:48;;;;;;;3.97;1.30;;;;;;;;;;4331917;33;20154;-82
2021/09/16 00:23:14;;;;;;;8.05;1.80;;;;;;;;;;4331594;33;20128;-81
2021/09/16 00:25:45;;;;;;;5.78;1.30;;;;;;;;;;4331002;33;20132;-82
2021/09/16 00:28:10;;;;;;;5.20;1.60;;;;;;;;;;4331103;33;20124;-82
2021/09/16 00:30:35;;;;;;;9.02;1.45;;;;;;;;;;4331649;33;20231;-82
2021/09/16 00:33:03;;;;;;;6.45;1.70;;;;;;;;;;4332068;33;20155;-82
2021/09/16 00:35:36;;;;;;;3.90;1.42;;;;;;;;;;4331742;33;20187;-82
2021/09/16 00:38:01;;;;;;;4.68;1.40;;;;;;;;;;4318669;33;20155;-82
2021/09/16 00:40:36;;;;;;;5.03;1.50;;;;;;;;;;4331819;33;20231;-82
2021/09/16 00:43:08;;;;;;;5.15;1.30;;;;;;;;;;4331530;33;20593;-82
2021/09/16 00:45:34;;;;;;;4.60;1.40;;;;;;;;;;4331081;33;20458;-82
2021/09/16 00:47:59;;;;;;;5.47;1.30;;;;;;;;;;4317523;33;20155;-82
2021/09/16 00:50:27;;;;;;;3.90;1.65;;;;;;;;;;4317457;33;20190;-81
2021/09/16 00:52:53;;;;;;;5.60;1.50;;;;;;;;;;4333034;33;20154;-82
2021/09/16 00:55:19;;;;;;;6.80;1.40;;;;;;;;;;4342307;33;20152;-82
2021/09/16 00:58:04;;;;;;;4.10;1.40;;;;;;;;;;4348129;33;20262;-81
2021/09/16 01:00:33;;;;;;;6.10;1.35;;;;;;;;;;4348695;33;20223;-82
2021/09/16 01:02:59;;;;;;;4.32;1.60;;;;;;;;;;4348103;33;20143;-81
2021/09/16 01:05:24;;;;;;;3.42;1.60;;;;;;;;;;4348225;33;20155;-81
2021/09/16 01:07:49;;;;;;;2.47;1.23;;;;;;;;;;4347876;33;20162;-81
2021/09/16 01:10:16;;;;;;;4.22;1.70;;;;;;;;;;4348510;33;20128;-83
2021/09/16 01:12:43;;;;;;;7.55;1.73;;;;;;;;;;4347505;33;20162;-83
2021/09/16 01:15:11;;;;;;;7.53;1.55;;;;;;;;;;4334307;33;20555;-83
2021/09/16 01:17:40;;;;;;;4.45;1.70;;;;;;;;;;4347800;33;20166;-83
2021/09/16 01:20:06;;;;;;;4.05;1.75;;;;;;;;;;4347499;33;20485;-83
2021/09/16 01:22:32;;;;;;;5.40;1.90;;;;;;;;;;4347427;33;20128;-83
2021/09/16 01:24:57;;;;;;;3.85;1.42;;;;;;;;;;4347377;33;20124;-82
2021/09/16 01:27:23;;;;;;;2.03;1.10;;;;;;;;;;4347786;33;20230;-82
2021/09/16 01:29:48;;;;;;;6.30;1.20;;;;;;;;;;4347981;33;20162;-82
2021/09/16 01:32:13;;;;;;;7.32;1.10;;;;;;;;;;4347429;33;20206;-82
2021/09/16 01:34:38;;;;;;;3.87;1.10;;;;;;;;;;4347746;33;20190;-82
2021/09/16 01:37:06;;;;;;;4.70;1.40;;;;;;;;;;4347594;33;20492;-81
2021/09/16 01:39:32;;;;;;;4.53;1.05;;;;;;;;;;4347397;33;20132;-82
2021/09/16 01:41:57;;;;;;;3.15;1.00;;;;;;;;;;4347613;33;20151;-82
2021/09/16 01:44:22;;;;;;;2.50;1.10;;;;;;;;;;4333594;33;20152;-81
2021/09/16 01:47:32;;;;;;;3.85;1.05;;;;;;;;;;4333909;33;20463;-82
2021/09/16 01:49:58;;;;;;;4.07;1.20;;;;;;;;;;4272517;33;20157;-83
2021/09/16 01:52:23;;;;;;;3.58;1.30;;;;;;;;;;4272563;33;20137;-81
2021/09/16 01:55:10;;;;;;;5.07;1.08;;;;;;;;;;4309176;33;20229;-82
2021/09/16 01:57:35;;;;;;;3.10;0.80;;;;;;;;;;4348068;33;20571;-82
2021/09/16 02:00:00;;;;;;;2.35;0.80;;;;;;;;;;4347354;33;20131;-82
2021/09/16 02:02:29;;;;;;;3.05;0.93;;;;;;;;;;4333649;33;20131;-81
2021/09/16 02:04:58;;;;;;;3.20;1.00;;;;;;;;;;4333600;33;20220;-82
2021/09/16 02:07:49;;;;;;;2.83;1.20;;;;;;;;;;4333353;33;20160;-81
2021/09/16 02:10:14;;;;;;;3.65;1.10;;;;;;;;;;4347386;33;20148;-81
2021/09/16 02:12:42;;;;;;;4.12;1.20;;;;;;;;;;4346618;33;20267;-82
2021/09/16 02:15:57;;;;;;;3.45;1.10;;;;;;;;;;4347377;33;20222;-81
2021/09/16 02:18:29;;;;;;;;;;;;;;;;;;;;;
2021/09/16 02:21:13;;;;;;;3.25;1.00;;;;;;;;;;4344000;33;20186;-81
2021/09/16 02:24:03;;;;;;;3.55;1.35;;;;;;;;;;4333543;33;20213;-81
2021/09/16 02:26:38;;;;;;;6.35;1.23;;;;;;;;;;4347203;33;20162;-81
2021/09/16 02:29:06;;;;;;;5.30;1.23;;;;;;;;;;4347078;33;20157;-81
2021/09/16 02:31:31;;;;;;;3.90;1.33;;;;;;;;;;4333015;33;20240;-81
2021/09/16 02:33:56;;;;;;;5.22;1.20;;;;;;;;;;4346939;33;20143;-82
2021/09/16 02:36:29;;;;;;;3.85;1.00;;;;;;;;;;4346671;33;20230;-82
2021/09/16 02:38:54;;;;;;;3.70;0.85;;;;;;;;;;4322121;33;20206;-82
2021/09/16 02:41:21;;;;;;;2.12;0.90;;;;;;;;;;4332927;33;20159;-82
2021/09/16 02:43:55;;;;;;;4.55;1.00;;;;;;;;;;4346264;33;20136;-82
2021/09/16 02:46:26;;;;;;;4.90;1.00;;;;;;;;;;4346618;33;20181;-82
2021/09/16 02:48:51;;;;;;;6.93;1.40;;;;;;;;;;4346159;33;20127;-82
2021/09/16 02:51:17;;;;;;;3.58;1.10;;;;;;;;;;4346484;33;20206;-82
2021/09/16 02:53:47;;;;;;;3.67;1.33;;;;;;;;;;4346585;33;20193;-82
2021/09/16 02:56:23;;;;;;;2.60;0.90;;;;;;;;;;4346616;33;20182;-82
2021/09/16 02:59:07;;;;;;;5.20;0.80;;;;;;;;;;4346827;33;20119;-82
2021/09/16 03:01:32;;;;;;;2.50;1.00;;;;;;;;;;4346707;33;20559;-82
2021/09/16 03:03:58;;;;;;;6.10;1.55;;;;;;;;;;4346420;33;20140;-82
2021/09/16 03:06:23;;;;;;;4.90;1.40;;;;;;;;;;4346203;33;20128;-82
2021/09/16 03:08:49;;;;;;;4.87;1.35;;;;;;;;;;4346345;33;20171;-81
2021/09/16 03:11:14;;;;;;;3.92;1.23;;;;;;;;;;4346086;33;20143;-81
2021/09/16 03:13:39;;;;;;;4.62;1.15;;;;;;;;;;4345312;33;20533;-81
2021/09/16 03:16:05;;;;;;;4.50;0.90;;;;;;;;;;4345697;33;20136;-81
2021/09/16 03:18:30;;;;;;;3.72;1.87;;;;;;;;;;4346168;33;20143;-82
2021/09/16 03:20:55;;;;;;;7.35;1.10;;;;;;;;;;4346263;33;20158;-82
2021/09/16 03:23:21;;;;;;;3.55;1.00;;;;;;;;;;4345643;33;20500;-81
2021/09/16 03:25:46;;;;;;;5.57;1.50;;;;;;;;;;4346290;33;20131;-82
2021/09/16 03:28:11;;;;;;;6.55;1.10;;;;;;;;;;4346067;33;20441;-82
2021/09/16 03:30:36;;;;;;;5.75;1.37;;;;;;;;;;4346162;33;20220;-83
2021/09/16 03:33:02;;;;;;;3.40;1.10;;;;;;;;;;4345880;33;20127;-82
2021/09/16 03:35:27;;;;;;;6.05;1.20;;;;;;;;;;4346150;33;20154;-81
2021/09/16 03:37:55;;;;;;;4.43;1.10;;;;;;;;;;4332315;33;20159;-81
2021/09/16 03:40:20;;;;;;;5.40;1.33;;;;;;;;;;4320046;33;20450;-81
2021/09/16 03:42:46;;;;;;;5.05;1.40;;;;;;;;;;4346071;33;20132;-82
2021/09/16 03:45:12;;;;;;;7.37;1.25;;;;;;;;;;4345407;33;20135;-82
2021/09/16 03:47:37;;;;;;;4.07;1.58;;;;;;;;;;4332251;33;20155;-82
2021/09/16 03:50:03;;;;;;;5.90;1.80;;;;;;;;;;4345947;33;20396;-81
2021/09/16 03:52:28;;;;;;;8.18;2.03;;;;;;;;;;4332405;33;20152;-81
2021/09/16 03:54:54;;;;;;;4.82;1.62;;;;;;;;;;4332094;33;20493;-81
2021/09/16 03:57:24;;;;;;;4.25;1.27;;;;;;;;;;4345172;33;20586;-81
2021/09/16 03:59:52;;;;;;;5.43;1.42;;;;;;;;;;4331464;33;20572;-83
2021/09/16 04:02:17;;;;;;;4.12;1.02;;;;;;;;;;4332470;33;20147;-82
2021/09/16 04:04:42;;;;;;;5.97;1.10;;;;;;;;;;4345806;33;20136;-82
2021/09/16 04:07:08;;;;;;;9.07;1.33;;;;;;;;;;4346069;33;20206;-81
2021/09/16 04:09:33;;;;;;;6.43;1.00;;;;;;;;;;4345471;33;20132;-81
2021/09/16 04:11:59;;;;;;;5.03;1.08;;;;;;;;;;4345785;33;20202;-81
2021/09/16 04:14:24;;;;;;;6.05;1.25;;;;;;;;;;4346050;33;20513;-82
2021/09/16 04:16:49;;;;;;;7.40;1.30;;;;;;;;;;4345935;33;20637;-83
2021/09/16 04:19:20;;;;;;;5.37;1.08;;;;;;;;;;4345498;33;20158;-83
2021/09/16 04:21:45;;;;;;;5.78;1.23;;;;;;;;;;4320073;33;20151;-82
2021/09/16 04:24:13;;;;;;;4.53;1.20;;;;;;;;;;4345653;33;20132;-81
2021/09/16 04:26:39;;;;;;;5.97;1.50;;;;;;;;;;4347556;33;20498;-82
2021/09/16 04:29:04;;;;;;;4.28;1.17;;;;;;;;;;4348696;33;20194;-83
2021/09/16 04:31:30;;;;;;;6.57;1.75;;;;;;;;;;4348633;33;20132;-82
2021/09/16 04:33:55;;;;;;;2.33;1.15;;;;;;;;;;4348171;33;20203;-82
2021/09/16 04:36:21;;;;;;;5.97;1.40;;;;;;;;;;4334668;33;20158;-81
2021/09/16 04:38:46;;;;;;;7.05;1.20;;;;;;;;;;4348049;33;20175;-82
2021/09/16 04:41:14;;;;;;;4.12;1.10;;;;;;;;;;4347985;33;20174;-83
2021/09/16 04:43:39;;;;;;;4.85;1.25;;;;;;;;;;4349099;33;20600;-82
2021/09/16 04:46:05;;;;;;;5.80;1.50;;;;;;;;;;4348075;33;20127;-81
2021/09/16 04:48:30;;;;;;;5.85;1.42;;;;;;;;;;4347882;33;20246;-81
2021/09/16 04:50:56;;;;;;;6.50;1.40;;;;;;;;;;4334974;33;20615;-82
2021/09/16 04:53:21;;;;;;;6.03;1.58;;;;;;;;;;4348285;33;20128;-82
2021/09/16 04:55:46;;;;;;;6.28;1.30;;;;;;;;;;4334554;33;20579;-84
2021/09/16 04:58:12;;;;;;;5.57;1.35;;;;;;;;;;4347933;33;20595;-82
2021/09/16 05:00:37;;;;;;;6.68;1.30;;;;;;;;;;4334444;33;20160;-82
2021/09/16 05:03:02;;;;;;;8.50;1.30;;;;;;;;;;4334305;33;20155;-83
2021/09/16 05:05:32;;;;;;;3.95;1.08;;;;;;;;;;4348110;33;20158;-82
2021/09/16 05:07:57;;;;;;;5.12;1.67;;;;;;;;;;4334565;33;20596;-83
2021/09/16 05:10:22;;;;;;;8.00;1.98;;;;;;;;;;4347912;33;20139;-83
2021/09/16 05:13:24;;;;;;;7.65;1.35;;;;;;;;;;4348177;33;20158;-82
2021/09/16 05:15:46;;;;;;;10.45;2.10;;;;;;;;;;4347506;33;20239;-84
2021/09/16 05:18:12;;;;;;;7.60;1.52;;;;;;;;;;4348252;33;20190;-83
2021/09/16 05:20:37;;;;;;;6.68;1.45;;;;;;;;;;4348803;33;20419;-85
2021/09/16 05:23:08;;;;;;;7.12;1.20;;;;;;;;;;4348584;33;20540;-83
2021/09/16 05:25:36;;;;;;;7.62;1.73;;;;;;;;;;4348664;33;20215;-83
2021/09/16 05:28:01;;;;;;;5.90;1.90;;;;;;;;;;4347677;33;20139;-81
2021/09/16 05:30:27;;;;;;;5.53;1.37;;;;;;;;;;4347611;33;20166;-82
2021/09/16 05:32:52;;;;;;;4.45;1.25;;;;;;;;;;4347270;33;20144;-82
2021/09/16 05:35:20;;;;;;;6.25;1.42;;;;;;;;;;4347140;33;20166;-83
2021/09/16 05:37:46;;;;;;;3.25;1.37;;;;;;;;;;4346850;33;20143;-80
2021/09/16 05:40:11;;;;;;;6.53;1.48;;;;;;;;;;4333571;33;20163;-78
2021/09/16 05:42:37;;;;;;;6.87;2.12;;;;;;;;;;4333326;33;20198;-81
2021/09/16 05:45:03;;;;;;;5.75;1.60;;;;;;;;;;4347471;33;20135;-81
2021/09/16 05:47:29;;;;;;;6.68;1.75;;;;;;;;;;4347653;33;20317;-82
2021/09/16 05:49:54;;;;;;;4.37;1.37;;;;;;;;;;4347161;33;20144;-81
2021/09/16 05:52:19;;;;;;;7.12;1.75;;;;;;;;;;4333399;33;20159;-82
2021/09/16 05:54:45;;;;;;;5.28;1.48;;;;;;;;;;4346681;33;20581;-81
2021/09/16 05:57:10;;;;;;;6.07;1.75;;;;;;;;;;4347227;33;20210;-81
2021/09/16 05:59:35;;;;;;;5.40;1.30;;;;;;;;;;4347302;33;20163;-82
2021/09/16 06:02:01;;;;;;;3.35;0.93;;;;;;;;;;4333703;33;20636;-79
2021/09/16 06:04:26;;;;;;;5.95;1.45;;;;;;;;;;4347040;33;20136;-82
2021/09/16 06:06:52;;;;;;;5.25;1.58;;;;;;;;;;4346437;33;20151;-81
2021/09/16 06:09:17;;;;;;;5.87;1.30;;;;;;;;;;4333363;33;20167;-80
2021/09/16 06:11:42;;;;;;;5.30;1.77;;;;;;;;;;4346677;33;20546;-81
2021/09/16 06:14:08;;;;;;;3.47;1.00;;;;;;;;;;4347013;33;20190;-82
2021/09/16 06:16:35;;;;;;;4.37;1.12;;;;;;;;;;4333358;33;20175;-82
2021/09/16 06:19:01;;;;;;;5.75;1.12;;;;;;;;;;4346778;33;20155;-81
2021/09/16 06:21:26;;;;;;;7.03;1.52;;;;;;;;;;4347184;33;20215;-81
2021/09/16 06:23:51;;;;;;;5.77;1.63;;;;;;;;;;4346890;33;20152;-81
2021/09/16 06:26:16;;;;;;;6.00;1.85;;;;;;;;;;4346888;33;20339;-82
2021/09/16 06:28:41;;;;;;;9.00;1.50;;;;;;;;;;4346850;33;20135;-80
2021/09/16 06:31:06;;;;;;;4.60;1.52;;;;;;;;;;4346344;33;20349;-82
2021/09/16 06:33:32;;;;;;;5.10;1.67;;;;;;;;;;4346387;33;20143;-79
2021/09/16 06:35:57;;;;;;;4.97;1.30;;;;;;;;;;4332895;33;20171;-81
2021/09/16 06:38:22;;;;;;;5.35;1.40;;;;;;;;;;4347081;33;20140;-82
2021/09/16 06:40:47;;;;;;;7.43;1.90;;;;;;;;;;4347205;33;20565;-82
2021/09/16 06:43:12;;;;;;;8.00;1.70;;;;;;;;;;4346446;33;20267;-80
2021/09/16 06:45:38;;;;;;;9.47;1.93;;;;;;;;;;4347489;33;20139;-80
2021/09/16 06:48:03;;;;;;;7.43;2.20;;;;;;;;;;4334891;33;20252;-83
2021/09/16 06:50:28;;;;;;;4.37;1.73;;;;;;;;;;4350466;33;20296;-83
2021/09/16 06:52:54;;;;;;;5.25;2.20;;;;;;;;;;4349367;33;20139;-81
2021/09/16 06:55:19;;;;;;;7.43;1.70;;;;;;;;;;4355437;33;20202;-82
2021/09/16 06:57:44;;;;;;;5.10;1.67;;;;;;;;;;4353232;33;20171;-81
2021/09/16 07:00:10;;;;;;;3.20;1.58;;;;;;;;;;4353981;33;20583;-82
2021/09/16 07:02:36;;;;;;;6.30;1.80;;;;;;;;;;4352876;33;20193;-82
2021/09/16 07:05:01;;;;;;;7.22;2.12;;;;;;;;;;4355105;33;20174;-82
2021/09/16 07:07:27;;;;;;;5.72;1.73;;;;;;;;;;4354138;33;20151;-81
2021/09/16 07:09:52;;;;;;;4.95;1.42;;;;;;;;;;4351883;33;20627;-81
2021/09/16 07:12:18;;;;;;;4.68;1.17;;;;;;;;;;4353848;33;20166;-81
2021/09/16 07:14:44;;;;;;;5.07;1.60;;;;;;;;;;4349097;33;20132;-81
2021/09/16 07:17:12;;;;;;;7.62;1.58;;;;;;;;;;4346161;33;20182;-82
2021/09/16 07:19:38;;;;;;;7.10;1.50;;;;;;;;;;4347072;33;20151;-82
2021/09/16 07:22:03;;;;;;;6.60;1.50;;;;;;;;;;4346664;33;20139;-81
2021/09/16 07:24:28;;;;;;;4.35;1.23;;;;;;;;;;4346402;33;20256;-82
2021/09/16 07:26:54;;;;;;;2.53;1.37;;;;;;;;;;4332844;33;20202;-80
2021/09/16 07:29:20;;;;;;;3.53;1.40;;;;;;;;;;4346787;33;20179;-80
2021/09/16 07:31:49;;;;;;;5.50;1.50;;;;;;;;;;4346088;33;20197;-81
2021/09/16 07:34:15;;;;;;;6.12;1.30;;;;;;;;;;4346062;33;20185;-79
2021/09/16 07:36:46;;;;;;;4.55;1.60;;;;;;;;;;4346029;33;20222;-82
2021/09/16 07:39:16;;;;;;;4.07;1.52;;;;;;;;;;4345721;33;20135;-81
2021/09/16 07:41:41;;;;;;;3.97;1.42;;;;;;;;;;4345683;33;20140;-80
2021/09/16 07:44:06;;;;;;;4.97;1.10;;;;;;;;;;4346485;33;20166;-81
2021/09/16 07:46:32;;;;;;;5.55;1.50;;;;;;;;;;4332907;33;20483;-82
2021/09/16 07:48:57;;;;;;;6.68;1.30;;;;;;;;;;4346450;33;20184;-81
2021/09/16 07:51:23;;;;;;;4.75;1.45;;;;;;;;;;4346420;33;20177;-83
2021/09/16 07:53:48;;;;;;;4.93;1.25;;;;;;;;;;4345697;33;20577;-78
2021/09/16 07:56:13;;;;;;;5.05;1.20;;;;;;;;;;4345639;33;20588;-79
2021/09/16 07:58:38;;;;;;;4.23;0.97;;;;;;;;;;4346212;33;20167;-80
2021/09/16 08:01:07;;;;;;;2.28;1.10;;;;;;;;;;4346168;33;20228;-82
2021/09/16 08:03:35;;;;;;;3.80;1.27;;;;;;;;;;4345594;33;20191;-82
2021/09/16 08:06:00;;;;;;;4.90;1.27;;;;;;;;;;4345820;33;20182;-82
2021/09/16 08:08:26;;;;;;;5.55;1.35;;;;;;;;;;4346025;33;20211;-82
2021/09/16 08:10:51;;;;;;;3.35;0.95;;;;;;;;;;4345823;33;20132;-82
2021/09/16 08:13:16;;;;;;;7.80;1.37;;;;;;;;;;4345195;33;20148;-80
2021/09/16 08:15:41;;;;;;;3.78;1.20;;;;;;;;;;4331972;33;20167;-80
2021/09/16 08:18:07;;;;;;;5.55;1.20;;;;;;;;;;4345088;33;20158;-82
2021/09/16 08:20:38;;;;;;;1.52;0.82;;;;;;;;;;4345291;33;20158;-81
2021/09/16 08:23:03;;;;;;;2.20;1.17;;;;;;;;;;4345363;33;20154;-81
2021/09/16 08:25:29;;;;;;;5.78;1.00;;;;;;;;;;4345513;33;20238;-81
2021/09/16 08:27:54;;;;;;;2.85;0.93;;;;;;;;;;4345420;33;20155;-80
2021/09/16 08:30:22;;;;;;;2.63;1.53;;;;;;;;;;4345681;33;20413;-81
2021/09/16 08:32:48;;;;;;;3.92;1.23;;;;;;;;;;4344945;33;20367;-81
2021/09/16 08:35:13;;;;;;;2.58;1.10;;;;;;;;;;4345974;33;20124;-81
2021/09/16 08:37:48;;;;;;;4.68;1.33;;;;;;;;;;4344847;33;20263;-81
2021/09/16 08:40:14;;;;;;;3.05;1.10;;;;;;;;;;4331601;33;20639;-81
2021/09/16 08:42:41;;;;;;;2.65;1.00;;;;;;;;;;4345036;33;20175;-79
2021/09/16 08:45:07;;;;;;;4.37;1.00;;;;;;;;;;4345124;33;20143;-81
2021/09/16 08:47:36;;;;;;;4.43;1.15;;;;;;;;;;4331181;33;20472;-82
2021/09/16 08:50:02;;;;;;;2.97;1.02;;;;;;;;;;4344851;33;20132;-80
2021/09/16 08:52:27;;;;;;;5.47;0.90;;;;;;;;;;4344776;33;20161;-82
2021/09/16 08:54:55;;;;;;;6.72;1.30;;;;;;;;;;4344672;33;20573;-82
2021/09/16 08:57:20;;;;;;;5.75;1.30;;;;;;;;;;4331434;33;20198;-83
2021/09/16 08:59:46;;;;;;;4.30;1.30;;;;;;;;;;4345133;33;20131;-81
2021/09/16 09:02:11;;;;;;;3.45;1.00;;;;;;;;;;4332068;33;20179;-79
2021/09/16 09:04:37;;;;;;;3.72;1.30;;;;;;;;;;4344861;33;20128;-80
2021/09/16 09:07:03;;;;;;;3.15;1.40;;;;;;;;;;4331917;33;20202;-82
2021/09/16 09:09:29;;;;;;;4.10;1.30;;;;;;;;;;4344579;33;20124;-82
2021/09/16 09:12:08;;;;;;;4.70;1.30;;;;;;;;;;4345261;33;20132;-81
2021/09/16 09:14:37;;;;;;;5.68;1.10;;;;;;;;;;4347699;33;20131;-83
2021/09/16 09:17:15;;;;;;;3.78;1.00;;;;;;;;;;4347898;33;20151;-82
2021/09/16 09:19:40;;;;;;;4.57;1.20;;;;;;;;;;4334027;33;20216;-82
2021/09/16 09:22:06;;;;;;;3.53;1.10;;;;;;;;;;4347594;33;20132;-81
2021/09/16 09:24:33;;;;;;;2.67;1.00;;;;;;;;;;4347136;33;20147;-82
2021/09/16 09:26:59;;;;;;;4.22;1.00;;;;;;;;;;4347413;33;20186;-78
2021/09/16 09:29:24;;;;;;;3.55;1.00;;;;;;;;;;4346957;33;20465;-82
2021/09/16 09:31:53;;;;;;;2.28;0.73;;;;;;;;;;4347128;33;20136;-81
2021/09/16 09:34:22;;;;;;;5.45;1.55;;;;;;;;;;4347964;33;20154;-81
2021/09/16 09:36:47;;;;;;;4.62;1.10;;;;;;;;;;4347310;33;20132;-81
2021/09/16 09:39:14;;;;;;;4.62;1.30;;;;;;;;;;4347302;33;20158;-83
2021/09/16 09:41:40;;;;;;;3.72;1.02;;;;;;;;;;4333525;33;20652;-81
2021/09/16 09:44:11;;;;;;;4.95;1.30;;;;;;;;;;4333558;33;20174;-82
2021/09/16 09:46:40;;;;;;;4.82;1.35;;;;;;;;;;4347395;33;20159;-81
2021/09/16 09:49:06;;;;;;;1.67;1.00;;;;;;;;;;4347028;33;20124;-82
2021/09/16 09:51:47;;;;;;;3.53;1.05;;;;;;;;;;4347601;33;20136;-81
2021/09/16 09:54:19;;;;;;;2.45;1.17;;;;;;;;;;4344711;33;20155;-81
2021/09/16 09:57:07;;;;;;;3.30;1.10;;;;;;;;;;4333610;33;20721;-81
2021/09/16 09:59:51;;;;;;;2.60;1.25;;;;;;;;;;4347096;33;20206;-82
2021/09/16 10:02:17;;;;;;;2.12;0.95;;;;;;;;;;4347068;33;20467;-82
2021/09/16 10:04:48;;;;;;;3.28;1.12;;;;;;;;;;4347312;33;20162;-81
2021/09/16 10:07:26;;;;;;;5.00;1.70;;;;;;;;;;4347268;33;20215;-81
2021/09/16 10:09:55;;;;;;;3.17;1.35;;;;;;;;;;4334286;33;20147;-82
2021/09/16 10:12:20;;;;;;;3.42;1.20;;;;;;;;;;4346531;33;20163;-83
2021/09/16 10:14:45;;;;;;;2.87;1.30;;;;;;;;;;4346627;33;20153;-81
2021/09/16 10:17:14;;;;;;;3.12;1.15;;;;;;;;;;4346578;33;20132;-83
2021/09/16 10:19:42;;;;;;;5.32;1.70;;;;;;;;;;4346704;33;20162;-81
2021/09/16 10:22:08;;;;;;;3.72;1.10;;;;;;;;;;4347002;33;20186;-81
2021/09/16 10:24:36;;;;;;;3.28;1.40;;;;;;;;;;4333032;33;20565;-83
2021/09/16 10:27:02;;;;;;;5.12;1.50;;;;;;;;;;4346431;33;20135;-82
2021/09/16 10:29:27;;;;;;;3.08;1.50;;;;;;;;;;4346685;33;20170;-81
2021/09/16 10:32:05;;;;;;;2.70;1.37;;;;;;;;;;4346721;33;20529;-82
2021/09/16 10:34:39;;;;;;;2.85;1.42;;;;;;;;;;4346564;33;20166;-81
2021/09/16 10:37:12;;;;;;;2.67;1.37;;;;;;;;;;4346526;33;20164;-81
2021/09/16 10:39:37;;;;;;;3.78;1.70;;;;;;;;;;4346711;33;20128;-81
2021/09/16 10:42:03;;;;;;;3.37;1.98;;;;;;;;;;4332713;33;20257;-81
2021/09/16 10:44:28;;;;;;;5.45;1.40;;;;;;;;;;4346223;33;20147;-83
2021/09/16 10:47:13;;;;;;;3.62;1.50;;;;;;;;;;4333148;33;20159;-80
2021/09/16 10:49:38;;;;;;;4.75;1.98;;;;;;;;;;4333366;33;20159;-81
2021/09/16 10:52:10;;;;;;;2.25;1.10;;;;;;;;;;4332596;33;20152;-83
2021/09/16 10:54:36;;;;;;;3.33;1.42;;;;;;;;;;4346241;33;20155;-81
2021/09/16 10:57:15;;;;;;;2.67;1.10;;;;;;;;;;4332350;33;20190;-81
2021/09/16 10:59:46;;;;;;;2.92;1.55;;;;;;;;;;4345907;33;20214;-83
2021/09/16 11:02:19;;;;;;;19.45;5.25;;;;;;;;;;4332379;33;20588;-82
2021/09/16 11:04:57;;;;;;;1.90;1.10;;;;;;;;;;4346388;33;20136;-82
2021/09/16 11:07:35;;;;;;;4.07;1.52;;;;;;;;;;4346296;33;20127;-81
2021/09/16 11:10:15;;;;;;;11.65;2.10;;;;;;;;;;4345656;33;20178;-82
2021/09/16 11:12:48;;;;;;;3.40;1.27;;;;;;;;;;4345918;33;20166;-81
2021/09/16 11:15:23;;;;;;;2.33;1.40;;;;;;;;;;4345296;33;20136;-83
2021/09/16 11:17:51;;;;;;;5.85;1.37;;;;;;;;;;4332635;33;20201;-81
2021/09/16 11:20:19;;;;;;;3.33;0.90;;;;;;;;;;4345565;33;20131;-82
2021/09/16 11:22:49;;;;;;;1.80;1.20;;;;;;;;;;4346023;33;20158;-82
2021/09/16 11:25:17;;;;;;;4.00;1.50;;;;;;;;;;4332026;33;20163;-81
2021/09/16 11:27:50;;;;;;;3.47;1.40;;;;;;;;;;4345501;33;20124;-83
2021/09/16 11:30:24;;;;;;;3.00;1.50;;;;;;;;;;4346515;33;20150;-82
2021/09/16 11:32:50;;;;;;;3.20;1.40;;;;;;;;;;4345984;33;20277;-79
2021/09/16 11:38:08;;;;;;;1.92;1.30;;;;;;;;;;4346017;33;20147;-82
2021/09/16 11:40:34;;;;;;;4.93;1.62;;;;;;;;;;4332001;33;20155;-82
2021/09/16 11:43:02;;;;;;;4.00;1.50;;;;;;;;;;4331910;33;20195;-82
2021/09/16 11:45:37;;;;;;;2.83;1.50;;;;;;;;;;4345910;33;20128;-81
2021/09/16 11:48:06;;;;;;;2.20;1.27;;;;;;;;;;4331644;33;20293;-82
2021/09/16 11:50:33;;;;;;;3.85;1.55;;;;;;;;;;4345650;33;20185;-82
2021/09/16 11:53:03;;;;;;;2.65;1.35;;;;;;;;;;4345557;33;20201;-81
2021/09/16 11:55:33;;;;;;;2.67;1.65;;;;;;;;;;4345654;33;20147;-81
2021/09/16 11:58:07;;;;;;;2.85;1.70;;;;;;;;;;4331757;33;20230;-82
2021/09/16 12:00:38;;;;;;;4.10;2.17;;;;;;;;;;4345373;33;20128;-81
2021/09/16 12:03:05;;;;;;;3.47;2.15;;;;;;;;;;4345378;33;20255;-82
2021/09/16 12:05:30;;;;;;;3.03;1.98;;;;;;;;;;4345270;33;20193;-82
2021/09/16 12:07:55;;;;;;;4.50;1.80;;;;;;;;;;4331889;33;20500;-81
2021/09/16 12:10:21;;;;;;;5.28;2.22;;;;;;;;;;4345530;33;20216;-82
2021/09/16 12:12:47;;;;;;;3.03;2.00;;;;;;;;;;4345379;33;20185;-82
2021/09/16 12:15:19;;;;;;;4.32;2.03;;;;;;;;;;4345422;33;20186;-82
2021/09/16 12:17:44;;;;;;;6.85;2.30;;;;;;;;;;4345312;33;20144;-82
2021/09/16 12:20:11;;;;;;;3.30;2.10;;;;;;;;;;4345355;33;20128;-81
2021/09/16 12:22:36;;;;;;;5.07;2.58;;;;;;;;;;4344997;33;20177;-81
2021/09/16 12:25:01;;;;;;;5.50;3.20;;;;;;;;;;4344836;33;20446;-82
2021/09/16 12:27:27;;;;;;;3.28;2.50;;;;;;;;;;4345225;33;20174;-82
2021/09/16 12:30:11;;;;;;;5.12;3.10;;;;;;;;;;4331186;33;20167;-81
2021/09/16 12:32:37;;;;;;;6.45;3.62;;;;;;;;;;4345608;33;20132;-82
2021/09/16 12:35:12;;;;;;;7.60;3.65;;;;;;;;;;4331121;33;20178;-83
2021/09/16 12:37:38;;;;;;;5.40;3.92;;;;;;;;;;4345381;33;20214;-82
2021/09/16 12:40:03;;;;;;;7.55;4.28;;;;;;;;;;4345017;33;20190;-82
2021/09/16 12:42:40;;;;;;;7.95;4.97;;;;;;;;;;4331702;33;20505;-82
2021/09/16 12:45:09;;;;;;;6.25;4.37;;;;;;;;;;4345381;33;20119;-81
2021/09/16 12:48:04;;;;;;;5.87;4.28;;;;;;;;;;4347484;33;20140;-81
2021/09/16 12:50:31;;;;;;;6.15;3.83;;;;;;;;;;4347717;33;20578;-83
2021/09/16 12:53:00;;;;;;;7.10;4.50;;;;;;;;;;4347455;33;20148;-82
2021/09/16 12:55:25;;;;;;;5.62;4.25;;;;;;;;;;4334114;33;20163;-81
2021/09/16 12:57:51;;;;;;;6.95;5.25;;;;;;;;;;4347576;33;20135;-83
2021/09/16 13:00:21;;;;;;;8.07;6.12;;;;;;;;;;4348110;33;20128;-81
2021/09/16 13:02:47;;;;;;;8.93;6.10;;;;;;;;;;4348251;33;20506;-82
2021/09/16 13:05:26;;;;;;;6.82;5.57;;;;;;;;;;4335170;33;20178;-81
2021/09/16 13:08:10;;;;;;;6.40;4.85;;;;;;;;;;4333796;33;20186;-82
2021/09/16 13:10:37;;;;;;;8.00;5.85;;;;;;;;;;4347612;33;20124;-81
2021/09/16 13:13:04;;;;;;;6.25;4.80;;;;;;;;;;4347349;33;20179;-81
2021/09/16 13:15:30;;;;;;;7.15;5.07;;;;;;;;;;4347716;33;20244;-82
2021/09/16 13:17:55;;;;;;;7.20;4.97;;;;;;;;;;4347258;33;20561;-79
2021/09/16 13:20:22;;;;;;;7.22;5.25;;;;;;;;;;4347809;33;20530;-82
2021/09/16 13:22:48;;;;;;;8.15;5.85;;;;;;;;;;4347733;33;20156;-82
2021/09/16 13:25:13;;;;;;;8.27;5.90;;;;;;;;;;4333935;33;20167;-82
2021/09/16 13:27:38;;;;;;;8.80;6.00;;;;;;;;;;4347132;33;20127;-81
2021/09/16 13:30:05;;;;;;;9.32;5.90;;;;;;;;;;4347319;33;20218;-81
2021/09/16 13:32:30;;;;;;;6.57;5.20;;;;;;;;;;4334074;33;20207;-80
2021/09/16 13:34:56;;;;;;;8.10;6.15;;;;;;;;;;4334296;33;20558;-81
2021/09/16 13:37:21;;;;;;;7.62;5.75;;;;;;;;;;4347362;33;20196;-81
2021/09/16 13:39:47;;;;;;;11.57;6.20;;;;;;;;;;4347253;33;20158;-81
2021/09/16 13:42:12;;;;;;;10.52;6.70;;;;;;;;;;4334102;33;20167;-81
2021/09/16 13:44:45;;;;;;;8.40;6.32;;;;;;;;;;4347154;33;20216;-83
2021/09/16 13:47:10;;;;;;;8.85;7.30;;;;;;;;;;4347298;33;20172;-79
2021/09/16 13:49:35;;;;;;;8.73;7.30;;;;;;;;;;4347444;33;20485;-82
2021/09/16 13:52:03;;;;;;;12.07;7.35;;;;;;;;;;4347299;33;20124;-81
2021/09/16 13:54:29;;;;;;;9.00;6.70;;;;;;;;;;4348077;33;20159;-81
2021/09/16 13:56:57;;;;;;;9.45;5.97;;;;;;;;;;4346729;33;20165;-83
2021/09/16 13:59:22;;;;;;;8.45;6.00;;;;;;;;;;4332579;33;20218;-81
2021/09/16 14:01:47;;;;;;;7.50;5.57;;;;;;;;;;4346581;33;20155;-81
2021/09/16 14:04:18;;;;;;;8.57;6.12;;;;;;;;;;4347862;33;20132;-82
2021/09/16 14:06:46;;;;;;;8.77;5.93;;;;;;;;;;4333740;33;20663;-81
2021/09/16 14:09:11;;;;;;;11.73;7.43;;;;;;;;;;4346309;33;20128;-80
2021/09/16 14:11:38;;;;;;;8.97;6.30;;;;;;;;;;4347016;33;20128;-81
2021/09/16 14:14:03;;;;;;;9.68;7.28;;;;;;;;;;4333054;33;20252;-80
2021/09/16 14:16:28;;;;;;;7.00;5.65;;;;;;;;;;4346249;33;20169;-82
2021/09/16 14:18:56;;;;;;;8.57;6.65;;;;;;;;;;4333527;33;20186;-80
2021/09/16 14:21:21;;;;;;;8.68;6.10;;;;;;;;;;4347004;33;20219;-80
2021/09/16 14:23:47;;;;;;;9.85;6.80;;;;;;;;;;4346299;33;20127;-81
2021/09/16 14:26:12;;;;;;;10.05;7.20;;;;;;;;;;4346908;33;20195;-81
2021/09/16 14:28:37;;;;;;;9.15;6.85;;;;;;;;;;4346670;33;20140;-82
2021/09/16 14:31:05;;;;;;;9.50;5.35;;;;;;;;;;4346897;33;20128;-82
2021/09/16 14:33:30;;;;;;;7.53;5.40;;;;;;;;;;4333157;33;20195;-80
2021/09/16 14:35:55;;;;;;;11.20;6.57;;;;;;;;;;4346537;33;20150;-81
2021/09/16 14:38:21;;;;;;;7.82;5.80;;;;;;;;;;4346671;33;20221;-80
2021/09/16 14:40:46;;;;;;;12.25;6.75;;;;;;;;;;4346344;33;20157;-81
2021/09/16 14:43:14;;;;;;;8.98;5.57;;;;;;;;;;4346572;33;20158;-81
2021/09/16 14:45:39;;;;;;;7.35;5.07;;;;;;;;;;4346003;33;20170;-81
2021/09/16 14:48:06;;;;;;;6.43;4.70;;;;;;;;;;4332783;33;20151;-80
2021/09/16 14:50:34;;;;;;;8.05;5.35;;;;;;;;;;4346567;33;20194;-78